createdAt,value
2023-12-11T00:01:48.150Z,4.70
2023-12-11T00:04:15.598Z,3.70
2023-12-11T00:06:42.201Z,4.65
2023-12-11T00:09:08.912Z,3.45
2023-12-11T00:11:35.501Z,3.85
2023-12-11T00:14:02.078Z,5.18
2023-12-11T00:16:32.138Z,4.97
2023-12-11T00:18:59.115Z,4.63
2023-12-11T00:21:25.808Z,5.07
2023-12-11T00:23:54.196Z,5.30
2023-12-11T00:26:20.753Z,4.35
2023-12-11T00:28:48.644Z,5.28
2023-12-11T00:31:15.571Z,5.43
2023-12-11T00:33:43.249Z,4.93
2023-12-11T00:36:10.375Z,4.60
2023-12-11T00:38:36.965Z,5.13
2023-12-11T00:41:10.185Z,4.63
2023-12-11T00:43:44.782Z,4.97
2023-12-11T00:46:20.801Z,4.10
2023-12-11T00:48:47.874Z,5.20
2023-12-11T00:51:21.966Z,4.68
2023-12-11T00:53:49.069Z,5.43
2023-12-11T00:56:16.002Z,4.68
2023-12-11T00:58:42.702Z,4.60
2023-12-11T01:01:09.378Z,4.15
2023-12-11T01:03:37.812Z,4.25
2023-12-11T01:06:05.145Z,4.18
2023-12-11T01:08:32.884Z,4.32
2023-12-11T01:11:00.401Z,4.03
2023-12-11T01:13:27.183Z,4.43
2023-12-11T01:15:53.838Z,4.30
2023-12-11T01:18:21.424Z,4.53
2023-12-11T01:20:48.108Z,3.95
2023-12-11T01:23:14.622Z,4.30
2023-12-11T01:25:41.229Z,3.80
2023-12-11T01:28:07.832Z,4.35
2023-12-11T01:30:34.416Z,4.55
2023-12-11T01:33:02.714Z,4.70
2023-12-11T01:35:29.332Z,4.13
2023-12-11T01:37:56.685Z,4.20
2023-12-11T01:40:23.373Z,3.92
2023-12-11T01:42:51.067Z,4.78
2023-12-11T01:45:18.883Z,4.65
2023-12-11T01:47:46.334Z,4.70
2023-12-11T01:50:13.913Z,4.68
2023-12-11T01:52:40.537Z,4.70
2023-12-11T01:55:07.995Z,4.25
2023-12-11T01:57:35.381Z,4.85
2023-12-11T02:00:05.933Z,5.00
2023-12-11T02:02:32.549Z,4.38
2023-12-11T02:04:59.664Z,4.85
2023-12-11T02:07:26.487Z,4.55
2023-12-11T02:09:53.058Z,4.75
2023-12-11T02:12:19.646Z,4.68
2023-12-11T02:14:46.296Z,4.63
2023-12-11T02:17:14.154Z,4.78
2023-12-11T02:19:40.837Z,5.05
2023-12-11T02:22:07.570Z,4.80
2023-12-11T02:24:40.927Z,4.88
2023-12-11T02:27:07.606Z,5.05
2023-12-11T02:29:34.268Z,4.75
2023-12-11T02:32:00.789Z,4.40
2023-12-11T02:34:27.335Z,4.78
2023-12-11T02:36:54.845Z,4.07
2023-12-11T02:39:21.503Z,5.05
2023-12-11T02:41:48.008Z,3.92
2023-12-11T02:44:14.713Z,4.25
2023-12-11T02:46:41.517Z,4.35
2023-12-11T02:49:08.229Z,3.72
2023-12-11T02:51:35.053Z,4.30
2023-12-11T02:54:01.666Z,3.85
2023-12-11T02:56:28.251Z,4.30
2023-12-11T02:58:55.598Z,4.10
2023-12-11T03:01:22.233Z,3.58
2023-12-11T03:03:48.946Z,4.57
2023-12-11T03:06:22.422Z,4.53
2023-12-11T03:08:50.663Z,3.53
2023-12-11T03:11:17.239Z,3.42
2023-12-11T03:13:43.763Z,3.15
2023-12-11T03:16:16.589Z,3.53
2023-12-11T03:18:43.326Z,2.95
2023-12-11T03:21:10.361Z,3.17
2023-12-11T03:23:38.183Z,3.17
2023-12-11T03:26:05.825Z,3.67
2023-12-11T03:28:32.485Z,3.97
2023-12-11T03:30:59.862Z,3.30
2023-12-11T03:33:26.596Z,4.10
2023-12-11T03:35:53.125Z,3.00
2023-12-11T03:38:19.723Z,3.20
2023-12-11T03:40:46.315Z,3.10
2023-12-11T03:43:13.127Z,3.25
2023-12-11T03:45:39.757Z,3.40
2023-12-11T03:48:06.550Z,2.85
2023-12-11T03:50:33.414Z,2.55
2023-12-11T03:52:59.983Z,3.05
2023-12-11T03:55:26.575Z,3.42
2023-12-11T03:57:53.118Z,3.50
2023-12-11T04:00:19.780Z,2.45
2023-12-11T04:02:46.327Z,3.78
2023-12-11T04:05:13.546Z,3.17
2023-12-11T04:07:40.208Z,3.33
2023-12-11T04:10:08.157Z,3.30
2023-12-11T04:12:35.506Z,3.63
2023-12-11T04:15:02.183Z,2.72
2023-12-11T04:17:29.105Z,3.60
2023-12-11T04:19:56.879Z,3.80
2023-12-11T04:22:23.598Z,2.90
2023-12-11T04:24:50.295Z,4.93
2023-12-11T04:27:16.938Z,3.40
2023-12-11T04:29:43.495Z,3.67
2023-12-11T04:32:10.098Z,3.20
2023-12-11T04:34:36.657Z,3.55
2023-12-11T04:37:03.479Z,3.88
2023-12-11T04:39:30.043Z,3.45
2023-12-11T04:41:56.655Z,3.15
2023-12-11T04:44:23.380Z,3.70
2023-12-11T04:46:49.921Z,3.08
2023-12-11T04:49:16.664Z,3.80
2023-12-11T04:51:43.336Z,5.32
2023-12-11T04:54:10.679Z,4.45
2023-12-11T04:56:38.202Z,4.10
2023-12-11T04:59:04.738Z,3.45
2023-12-11T05:01:31.760Z,3.60
2023-12-11T05:03:58.357Z,3.83
2023-12-11T05:06:24.962Z,4.15
2023-12-11T05:08:53.198Z,4.00
2023-12-11T05:11:19.751Z,3.95
2023-12-11T05:13:47.931Z,3.58
2023-12-11T05:16:14.577Z,3.00
2023-12-11T05:18:41.356Z,4.18
2023-12-11T05:21:09.398Z,3.30
2023-12-11T05:23:36.963Z,3.85
2023-12-11T05:26:03.792Z,4.30
2023-12-11T05:28:30.414Z,3.95
2023-12-11T05:30:57.092Z,4.03
2023-12-11T05:33:23.763Z,3.60
2023-12-11T05:35:50.417Z,3.85
2023-12-11T05:38:16.990Z,3.88
2023-12-11T05:40:43.757Z,3.75
2023-12-11T05:43:10.413Z,4.40
2023-12-11T05:45:37.563Z,3.85
2023-12-11T05:48:04.878Z,3.45
2023-12-11T05:50:34.184Z,3.67
2023-12-11T05:53:01.208Z,3.88
2023-12-11T05:55:27.788Z,3.70
2023-12-11T05:57:55.264Z,4.28
2023-12-11T06:00:22.156Z,5.35
2023-12-11T06:02:48.741Z,5.15
2023-12-11T06:05:15.434Z,3.80
2023-12-11T06:07:42.835Z,4.07
2023-12-11T06:10:10.235Z,3.45
2023-12-11T06:12:37.171Z,3.75
2023-12-11T06:15:04.859Z,3.60
2023-12-11T06:17:31.815Z,4.40
2023-12-11T06:19:58.589Z,3.85
2023-12-11T06:22:25.204Z,3.63
2023-12-11T06:24:51.892Z,4.70
2023-12-11T06:27:18.469Z,3.60
2023-12-11T06:29:45.082Z,4.80
2023-12-11T06:32:11.685Z,4.35
2023-12-11T06:34:39.052Z,5.22
2023-12-11T06:37:06.515Z,4.35
2023-12-11T06:39:34.328Z,4.93
2023-12-11T06:42:00.874Z,4.93
2023-12-11T06:44:28.373Z,4.88
2023-12-11T06:46:55.565Z,4.40
2023-12-11T06:49:22.603Z,5.40
2023-12-11T06:51:50.305Z,4.65
2023-12-11T06:54:17.043Z,4.50
2023-12-11T06:56:43.664Z,4.32
2023-12-11T06:59:10.437Z,4.45
2023-12-11T07:01:37.455Z,5.32
2023-12-11T07:04:04.922Z,4.38
2023-12-11T07:06:31.855Z,4.57
2023-12-11T07:08:59.045Z,4.00
2023-12-11T07:11:26.588Z,5.03
2023-12-11T07:13:54.867Z,4.40
2023-12-11T07:16:21.869Z,3.75
2023-12-11T07:18:48.585Z,4.60
2023-12-11T07:21:15.313Z,4.35
2023-12-11T07:23:41.996Z,4.00
2023-12-11T07:26:10.333Z,3.38
2023-12-11T07:28:37.933Z,3.40
2023-12-11T07:31:06.644Z,3.88
2023-12-11T07:33:34.298Z,3.17
2023-12-11T07:36:02.752Z,4.15
2023-12-11T07:38:30.028Z,4.18
2023-12-11T07:40:57.693Z,4.05
2023-12-11T07:43:24.981Z,3.08
2023-12-11T07:45:53.097Z,3.47
2023-12-11T07:48:20.882Z,4.60
2023-12-11T07:50:47.692Z,3.08
2023-12-11T07:53:14.411Z,3.28
2023-12-11T07:55:42.355Z,2.90
2023-12-11T07:58:09.109Z,2.80
2023-12-11T08:00:35.739Z,3.25
2023-12-11T08:03:04.216Z,3.17
2023-12-11T08:05:31.217Z,3.03
2023-12-11T08:07:57.772Z,2.90
2023-12-11T08:10:24.408Z,2.35
2023-12-11T08:12:55.132Z,2.45
2023-12-11T08:15:21.759Z,3.67
2023-12-11T08:17:48.386Z,2.50
2023-12-11T08:20:18.909Z,2.67
2023-12-11T08:22:46.706Z,3.55
2023-12-11T08:25:14.599Z,2.72
2023-12-11T08:27:42.800Z,2.58
2023-12-11T08:30:11.941Z,2.65
2023-12-11T08:32:41.042Z,2.88
2023-12-11T08:35:09.517Z,3.15
2023-12-11T08:37:36.823Z,3.63
2023-12-11T08:40:07.802Z,3.10
2023-12-11T08:42:40.540Z,3.28
2023-12-11T08:45:09.343Z,3.17
2023-12-11T08:47:39.007Z,3.53
2023-12-11T08:50:09.499Z,2.45
2023-12-11T08:52:37.966Z,2.95
2023-12-11T08:55:05.354Z,3.83
2023-12-11T08:57:32.098Z,4.00
2023-12-11T08:59:59.053Z,3.45
2023-12-11T09:02:28.147Z,2.88
2023-12-11T09:04:54.705Z,3.92
2023-12-11T09:07:21.396Z,3.53
2023-12-11T09:09:48.068Z,4.90
2023-12-11T09:12:23.453Z,3.88
2023-12-11T09:14:57.837Z,3.15
2023-12-11T09:17:24.637Z,2.97
2023-12-11T09:19:55.306Z,3.25
2023-12-11T09:24:50.134Z,3.67
2023-12-11T09:27:16.687Z,2.78
2023-12-11T09:29:43.198Z,3.58
2023-12-11T09:32:09.801Z,3.40
2023-12-11T09:34:36.605Z,3.35
2023-12-11T09:37:04.191Z,3.40
2023-12-11T09:39:30.838Z,3.20
2023-12-11T09:41:58.414Z,3.78
2023-12-11T09:44:26.553Z,3.10
2023-12-11T09:47:19.520Z,4.03
2023-12-11T09:49:49.846Z,3.13
2023-12-11T09:52:16.847Z,2.60
2023-12-11T09:54:43.609Z,3.67
2023-12-11T09:57:14.894Z,3.05
2023-12-11T09:59:42.482Z,3.35
2023-12-11T10:02:18.931Z,3.63
2023-12-11T10:05:01.457Z,3.00
2023-12-11T10:07:28.069Z,3.10
2023-12-11T10:09:54.768Z,3.55
2023-12-11T10:12:21.450Z,2.72
2023-12-11T10:15:02.780Z,3.03
2023-12-11T10:17:30.769Z,3.22
2023-12-11T10:19:57.735Z,3.60
2023-12-11T10:22:34.609Z,3.20
2023-12-11T10:25:01.735Z,2.95
2023-12-11T10:27:28.644Z,2.90
2023-12-11T10:30:09.065Z,2.33
2023-12-11T10:32:35.757Z,3.08
2023-12-11T10:35:03.029Z,3.78
2023-12-11T10:37:32.472Z,2.58
2023-12-11T10:39:59.960Z,3.10
2023-12-11T10:42:27.845Z,2.90
2023-12-11T10:44:55.727Z,3.72
2023-12-11T10:47:23.415Z,3.20
2023-12-11T10:49:50.978Z,3.78
2023-12-11T10:52:18.328Z,2.97
2023-12-11T10:54:46.584Z,3.85
2023-12-11T10:57:18.365Z,3.20
2023-12-11T10:59:46.469Z,2.80
2023-12-11T11:02:18.097Z,3.22
2023-12-11T11:07:36.259Z,3.22
2023-12-11T11:10:24.787Z,3.72
2023-12-11T11:13:06.422Z,3.53
2023-12-11T11:15:34.029Z,3.45
2023-12-11T11:18:01.780Z,3.35
2023-12-11T11:20:32.174Z,3.83
2023-12-11T11:23:20.139Z,4.47
2023-12-11T11:25:53.166Z,3.80
2023-12-11T11:28:43.717Z,3.38
2023-12-11T11:33:52.050Z,3.60
2023-12-11T11:36:20.679Z,2.90
2023-12-11T11:39:02.483Z,3.13
2023-12-11T11:41:31.764Z,3.72
2023-12-11T11:44:08.049Z,3.70
2023-12-11T11:46:54.318Z,4.68
2023-12-11T11:49:35.233Z,4.00
2023-12-11T11:52:10.557Z,2.95
2023-12-11T11:54:38.890Z,3.15
2023-12-11T11:57:07.483Z,2.95
2023-12-11T11:59:46.611Z,3.33
2023-12-11T12:02:13.245Z,3.30
2023-12-11T12:04:40.136Z,2.97
2023-12-11T12:07:09.140Z,3.10
2023-12-11T12:09:35.972Z,3.33
2023-12-11T12:12:04.239Z,3.10
2023-12-11T12:14:30.788Z,3.35
2023-12-11T12:16:57.460Z,4.70
2023-12-11T12:19:32.635Z,3.53
2023-12-11T12:22:00.311Z,3.80
2023-12-11T12:24:27.146Z,3.47
2023-12-11T12:26:58.856Z,3.58
2023-12-11T12:31:54.262Z,3.10
2023-12-11T12:34:22.120Z,2.92
2023-12-11T12:36:48.992Z,3.35
2023-12-11T12:39:19.247Z,3.28
2023-12-11T12:41:52.141Z,3.05
2023-12-11T12:44:20.671Z,3.33
2023-12-11T12:46:48.163Z,3.03
2023-12-11T12:49:19.373Z,3.28
2023-12-11T12:51:48.572Z,4.22
2023-12-11T12:54:16.370Z,3.83
2023-12-11T12:56:44.503Z,3.05
2023-12-11T12:59:11.996Z,3.85
2023-12-11T13:01:40.791Z,4.20
2023-12-11T13:04:08.963Z,2.83
2023-12-11T13:06:36.341Z,2.97
2023-12-11T13:09:04.325Z,2.90
2023-12-11T13:11:44.034Z,3.63
2023-12-11T13:14:13.256Z,3.28
2023-12-11T13:16:45.094Z,3.97
2023-12-11T13:19:12.862Z,3.28
2023-12-11T13:21:39.620Z,3.60
2023-12-11T13:24:06.893Z,3.75
2023-12-11T13:26:33.372Z,3.65
2023-12-11T13:28:59.989Z,3.33
2023-12-11T13:31:26.746Z,4.03
2023-12-11T13:33:53.681Z,3.63
2023-12-11T13:36:20.524Z,2.80
2023-12-11T13:38:47.207Z,3.08
2023-12-11T13:41:15.631Z,4.78
2023-12-11T13:43:42.444Z,3.13
2023-12-11T13:46:09.178Z,3.00
2023-12-11T13:48:36.875Z,3.00
2023-12-11T13:51:04.369Z,3.83
2023-12-11T13:53:30.890Z,3.97
2023-12-11T13:55:57.406Z,5.72
2023-12-11T13:58:24.116Z,3.00
2023-12-11T14:00:52.640Z,3.78
2023-12-11T14:03:22.259Z,4.32
2023-12-11T14:05:52.803Z,3.17
2023-12-11T14:08:19.492Z,2.15
2023-12-11T14:10:46.385Z,3.33
2023-12-11T14:13:16.015Z,3.17
2023-12-11T14:15:43.879Z,2.70
2023-12-11T14:18:11.939Z,3.15
2023-12-11T14:20:38.903Z,3.42
2023-12-11T14:23:05.828Z,3.45
2023-12-11T14:25:33.115Z,2.90
2023-12-11T14:28:05.862Z,2.92
2023-12-11T14:30:38.046Z,6.25
2023-12-11T14:35:32.321Z,3.28
2023-12-11T14:37:59.082Z,2.83
2023-12-11T14:40:25.790Z,2.47
2023-12-11T14:42:52.510Z,3.65
2023-12-11T14:45:19.143Z,3.65
2023-12-11T14:47:45.824Z,2.78
2023-12-11T14:50:12.763Z,2.67
2023-12-11T14:52:39.385Z,2.83
2023-12-11T14:55:08.155Z,3.25
2023-12-11T14:57:35.012Z,2.70
2023-12-11T15:00:02.694Z,2.55
2023-12-11T15:02:29.506Z,2.42
2023-12-11T15:04:56.034Z,2.05
2023-12-11T15:07:22.622Z,2.95
2023-12-11T15:09:49.315Z,3.17
2023-12-11T15:12:16.732Z,2.88
2023-12-11T15:14:44.283Z,2.83
2023-12-11T15:17:11.923Z,2.90
2023-12-11T15:19:42.203Z,3.83
2023-12-11T15:22:09.029Z,2.95
2023-12-11T15:24:35.724Z,3.88
2023-12-11T15:27:04.965Z,3.25
2023-12-11T15:29:31.672Z,3.70
2023-12-11T15:31:58.308Z,3.47
2023-12-11T15:34:25.119Z,4.32
2023-12-11T15:36:51.784Z,4.60
2023-12-11T15:39:18.371Z,4.80
2023-12-11T15:41:45.229Z,4.53
2023-12-11T15:44:12.070Z,4.13
2023-12-11T15:46:41.233Z,3.70
2023-12-11T15:49:07.906Z,4.28
2023-12-11T15:51:34.571Z,3.95
2023-12-11T15:54:02.714Z,4.20
2023-12-11T15:56:32.855Z,4.10
2023-12-11T15:58:59.565Z,3.88
2023-12-11T16:01:27.215Z,3.90
2023-12-11T16:03:56.987Z,2.97
2023-12-11T16:06:24.457Z,3.53
2023-12-11T16:08:53.210Z,4.97
2023-12-11T16:34:50.335Z,4.15
2023-12-11T16:37:16.972Z,4.22
2023-12-11T16:39:44.063Z,4.57
2023-12-11T16:42:10.635Z,4.60
2023-12-11T16:44:37.343Z,4.18
2023-12-11T16:47:05.066Z,5.03
2023-12-11T16:49:35.821Z,5.10
2023-12-11T16:52:09.703Z,5.30
2023-12-11T16:54:36.285Z,6.50
2023-12-11T16:57:03.070Z,5.55
2023-12-11T16:59:29.592Z,5.05
2023-12-11T17:01:56.200Z,5.25
2023-12-11T17:04:22.923Z,4.32
2023-12-11T17:06:49.554Z,4.47
2023-12-11T17:09:16.148Z,4.00
2023-12-11T17:11:44.705Z,4.47
2023-12-11T17:14:12.042Z,4.57
2023-12-11T17:16:38.626Z,4.45
2023-12-11T17:19:05.318Z,4.18
2023-12-11T17:21:34.180Z,4.15
2023-12-11T17:24:01.239Z,4.15
2023-12-11T17:26:27.757Z,4.82
2023-12-11T17:28:54.318Z,6.10
2023-12-11T17:31:20.962Z,6.18
2023-12-11T17:33:47.751Z,5.28
2023-12-11T17:36:17.518Z,5.15
2023-12-11T17:38:44.033Z,5.32
2023-12-11T17:41:10.673Z,6.63
2023-12-11T17:43:37.221Z,6.80
2023-12-11T17:46:04.446Z,6.40
2023-12-11T17:48:31.543Z,5.68
2023-12-11T17:50:58.154Z,7.00
2023-12-11T17:53:24.717Z,5.53
2023-12-11T17:55:51.347Z,5.65
2023-12-11T17:58:17.931Z,3.88
2023-12-11T18:00:44.510Z,3.60
2023-12-11T18:03:11.139Z,3.75
2023-12-11T18:05:37.911Z,3.45
2023-12-11T18:08:04.782Z,3.05
2023-12-11T18:10:34.412Z,2.53
2023-12-11T18:13:01.429Z,2.47
2023-12-11T18:15:27.976Z,2.40
2023-12-11T18:17:54.561Z,2.00
2023-12-11T18:20:21.397Z,1.48
2023-12-11T18:22:48.064Z,1.95
2023-12-11T18:25:14.662Z,1.35
2023-12-11T18:27:41.759Z,1.08
2023-12-11T18:30:08.868Z,1.50
2023-12-11T18:32:35.864Z,1.40
2023-12-11T18:35:03.778Z,1.30
2023-12-11T18:37:30.797Z,1.35
2023-12-11T18:39:57.590Z,1.58
2023-12-11T18:42:24.190Z,1.55
2023-12-11T18:44:51.018Z,1.88
2023-12-11T18:47:17.538Z,2.00
2023-12-11T18:49:44.379Z,2.13
2023-12-11T18:52:13.100Z,2.75
2023-12-11T18:54:40.244Z,2.65
2023-12-11T18:57:06.855Z,2.22
2023-12-11T18:59:33.663Z,2.20
2023-12-11T19:02:00.390Z,2.13
2023-12-11T19:04:27.082Z,2.00
2023-12-11T19:06:53.753Z,2.22
2023-12-11T19:09:20.463Z,2.17
2023-12-11T19:11:48.759Z,2.00
2023-12-11T19:14:15.274Z,1.42
2023-12-11T19:16:41.812Z,2.80
2023-12-11T19:19:11.959Z,2.10
2023-12-11T19:21:40.676Z,2.55
2023-12-11T19:24:11.189Z,1.40
2023-12-11T19:26:40.159Z,1.20
2023-12-11T19:32:04.849Z,1.08
2023-12-11T19:34:31.690Z,1.00
2023-12-11T19:36:58.539Z,1.40
2023-12-11T19:39:25.397Z,9.32
2023-12-11T19:41:52.110Z,1.67
2023-12-11T19:44:19.033Z,2.15
2023-12-11T19:46:46.946Z,1.10
2023-12-11T19:49:13.929Z,1.08
2023-12-11T19:51:43.921Z,1.38
2023-12-11T19:54:10.882Z,1.30
2023-12-11T19:56:37.453Z,1.10
2023-12-11T19:59:04.990Z,1.00
2023-12-11T20:01:32.228Z,1.60
2023-12-11T20:03:59.142Z,1.67
2023-12-11T20:06:27.249Z,2.00
2023-12-11T20:08:54.666Z,1.48
2023-12-11T20:11:21.577Z,1.52
2023-12-11T20:13:50.417Z,1.98
2023-12-11T20:16:18.329Z,1.90
2023-12-11T20:18:45.297Z,1.88
2023-12-11T20:21:11.959Z,1.80
2023-12-11T20:23:38.537Z,2.13
2023-12-11T20:26:06.542Z,2.40
2023-12-11T20:28:33.792Z,2.25
2023-12-11T20:31:00.694Z,2.25
2023-12-11T20:33:27.383Z,2.35
2023-12-11T20:35:54.644Z,1.90
2023-12-11T20:38:21.354Z,2.42
2023-12-11T20:40:48.681Z,2.33
2023-12-11T20:43:15.500Z,2.58
2023-12-11T20:45:42.313Z,2.17
2023-12-11T20:48:08.927Z,2.55
2023-12-11T20:50:38.267Z,2.30
2023-12-11T20:53:04.824Z,1.75
2023-12-11T20:55:31.730Z,2.42
2023-12-11T20:57:58.294Z,2.50
2023-12-11T21:00:24.927Z,2.85
2023-12-11T21:02:51.555Z,3.15
2023-12-11T21:05:18.298Z,2.67
2023-12-11T21:07:44.997Z,3.03
2023-12-11T21:10:11.754Z,2.63
2023-12-11T21:12:38.406Z,2.65
2023-12-11T21:15:05.432Z,2.90
2023-12-11T21:17:32.609Z,2.40
2023-12-11T21:19:59.449Z,2.70
2023-12-11T21:22:26.148Z,2.95
2023-12-11T21:24:52.801Z,2.47
2023-12-11T21:27:19.348Z,2.45
2023-12-11T21:29:45.926Z,2.20
2023-12-11T21:32:12.470Z,2.25
2023-12-11T21:34:44.222Z,2.13
2023-12-11T21:37:11.502Z,2.30
2023-12-11T21:39:38.150Z,2.13
2023-12-11T21:42:05.259Z,2.00
2023-12-11T21:44:32.194Z,2.10
2023-12-11T21:46:59.447Z,1.70
2023-12-11T21:49:27.018Z,1.88
2023-12-11T21:51:53.774Z,1.55
2023-12-11T21:54:21.560Z,2.00
2023-12-11T21:56:48.124Z,1.92
2023-12-11T21:59:16.735Z,1.70
2023-12-11T22:01:43.614Z,2.38
2023-12-11T22:04:12.060Z,1.88
2023-12-11T22:06:39.124Z,2.67
2023-12-11T22:09:05.649Z,1.75
2023-12-11T22:11:32.219Z,1.50
2023-12-11T22:13:58.988Z,1.45
2023-12-11T22:16:26.365Z,1.40
2023-12-11T22:18:53.233Z,1.30
2023-12-11T22:21:27.081Z,1.48
2023-12-11T22:23:54.732Z,1.30
2023-12-11T22:26:23.007Z,1.45
2023-12-11T22:28:49.475Z,1.40
2023-12-11T22:31:16.030Z,1.40
2023-12-11T22:33:42.732Z,1.40
2023-12-11T22:36:09.499Z,2.35
2023-12-11T22:38:36.253Z,1.35
2023-12-11T22:41:03.041Z,1.38
2023-12-11T22:43:29.763Z,1.58
2023-12-11T22:45:56.394Z,1.08
2023-12-11T22:48:23.184Z,1.65
2023-12-11T22:50:49.784Z,1.20
2023-12-11T22:53:16.302Z,1.35
2023-12-11T22:55:42.930Z,1.50
2023-12-11T22:58:16.158Z,1.60
2023-12-11T23:00:44.019Z,1.60
2023-12-11T23:03:10.727Z,1.70
2023-12-11T23:05:37.488Z,1.98
2023-12-11T23:08:04.485Z,2.15
2023-12-11T23:10:31.099Z,1.90
2023-12-11T23:12:57.681Z,1.73
2023-12-11T23:15:24.413Z,1.48
2023-12-11T23:17:50.944Z,1.50
2023-12-11T23:20:17.744Z,1.75
2023-12-11T23:22:44.685Z,1.67
2023-12-11T23:25:11.622Z,1.90
2023-12-11T23:27:38.665Z,2.30
2023-12-11T23:30:08.184Z,1.73
2023-12-11T23:32:35.944Z,1.80
2023-12-11T23:35:04.049Z,1.75
2023-12-11T23:37:31.880Z,1.75
2023-12-11T23:39:59.130Z,2.08
2023-12-11T23:42:25.736Z,1.60
2023-12-11T23:44:52.342Z,1.88
2023-12-11T23:47:18.970Z,2.03
2023-12-11T23:49:45.939Z,2.00
2023-12-11T23:52:12.560Z,2.80
2023-12-11T23:54:39.085Z,2.10
2023-12-11T23:57:05.537Z,2.50
2023-12-11T23:59:32.634Z,2.35
